Time;durP1;ratioP1;P1;durP2;ratioP2;P2;SDS_P1;SDS_P2;PMS_P1;PMS_P2;Temp;Humidity;BMP_temperature;BMP_pressure;BME280_temperature;BME280_humidity;BME280_pressure;Samples;Min_cycle;Max_cycle;Signal;HPM_P1;HPM_P2
2020/12/24 00:01:39;;;;;;;41.35;19.95;;;;;;;5.37;89.35;98171.27;2118697;83;21157;-65
2020/12/24 00:04:40;;;;;;;39.33;19.10;;;;;;;5.35;89.36;98166.61;2200228;81;21151;-65
2020/12/24 00:07:42;;;;;;;35.60;17.35;;;;;;;5.30;89.25;98162.09;2200093;81;21285;-64
2020/12/24 00:10:43;;;;;;;35.90;15.80;;;;;;;5.25;89.23;98153.22;2200311;81;21147;-65
2020/12/24 00:13:44;;;;;;;37.63;17.07;;;;;;;5.25;89.28;98143.29;2199863;81;21289;-65
2020/12/24 00:16:45;;;;;;;39.80;22.27;;;;;;;5.25;89.29;98143.29;2199812;81;21274;-65
2020/12/24 00:19:46;;;;;;;36.85;18.35;;;;;;;5.24;89.30;98129.42;2118513;83;21167;-65
2020/12/24 00:22:47;;;;;;;37.88;17.92;;;;;;;5.21;89.26;98128.28;2200039;81;21717;-65
2020/12/24 00:25:48;;;;;;;35.05;15.85;;;;;;;5.14;89.25;98124.31;2200310;81;21163;-65
2020/12/24 00:28:50;;;;;;;35.25;15.55;;;;;;;5.10;89.33;98118.87;2199810;81;21265;-65
2020/12/24 00:31:51;;;;;;;35.73;15.43;;;;;;;5.08;89.39;98110.33;2132432;83;21740;-65
2020/12/24 00:34:52;;;;;;;33.92;15.18;;;;;;;5.07;89.46;98107.34;2201393;81;21285;-64
2020/12/24 00:37:54;;;;;;;33.83;16.17;;;;;;;5.05;89.49;98096.19;2143924;83;21170;-65
2020/12/24 00:40:55;;;;;;;37.58;16.80;;;;;;;4.98;89.55;98089.98;2200595;81;21610;-64
2020/12/24 00:43:56;;;;;;;36.33;16.52;;;;;;;4.94;89.73;98091.52;2144054;83;21320;-66
2020/12/24 00:46:57;;;;;;;32.63;15.40;;;;;;;4.93;89.91;98093.28;2200498;81;21100;-65
2020/12/24 00:49:58;;;;;;;34.85;15.18;;;;;;;4.98;89.98;98086.08;2144010;83;21585;-66
2020/12/24 00:52:59;;;;;;;35.83;15.55;;;;;;;5.01;89.96;98085.95;2200482;81;21155;-64
2020/12/24 00:56:01;;;;;;;34.95;15.88;;;;;;;5.03;89.85;98096.27;2144064;83;21173;-64
2020/12/24 00:59:02;;;;;;;36.53;17.80;;;;;;;5.02;89.96;98088.91;2200674;81;21725;-65
2020/12/24 01:02:03;;;;;;;34.27;17.67;;;;;;;5.07;90.03;98086.11;2144302;83;21313;-65
2020/12/24 01:05:04;;;;;;;31.40;14.47;;;;;;;5.05;90.16;98076.22;2200713;81;21702;-65
2020/12/24 01:08:05;;;;;;;35.85;16.10;;;;;;;5.04;90.42;98070.64;2144242;83;21299;-64
2020/12/24 01:11:06;;;;;;;37.05;15.50;;;;;;;5.04;90.29;98065.44;2200406;81;21160;-64
2020/12/24 01:14:08;;;;;;;34.60;16.00;;;;;;;5.08;90.27;98061.77;2144055;83;21154;-65
2020/12/24 01:17:09;;;;;;;33.85;15.60;;;;;;;5.14;90.34;98060.18;2200906;81;21290;-74
2020/12/24 01:20:11;;;;;;;34.18;15.60;;;;;;;5.19;90.28;98059.47;2144129;83;21728;-70
2020/12/24 01:23:12;;;;;;;33.38;14.93;;;;;;;5.25;90.28;98058.78;2200945;81;21253;-73
2020/12/24 01:26:13;;;;;;;33.78;15.78;;;;;;;5.25;90.42;98048.38;2119187;83;21281;-65
2020/12/24 01:29:14;;;;;;;32.55;15.15;;;;;;;5.27;90.39;98055.19;2200899;81;21261;-65
2020/12/24 01:32:15;;;;;;;37.48;15.38;;;;;;;5.32;90.43;98062.27;2143822;83;22140;-64
2020/12/24 01:35:16;;;;;;;30.17;13.18;;;;;;;5.31;90.37;98049.36;2176364;81;21289;-64
2020/12/24 01:38:18;;;;;;;31.95;14.90;;;;;;;5.32;90.39;98030.24;2143810;83;21169;-64
2020/12/24 01:41:19;;;;;;;32.85;14.85;;;;;;;5.40;90.72;98032.43;2200394;81;21147;-64
2020/12/24 01:44:20;;;;;;;34.92;16.42;;;;;;;5.43;90.47;98022.72;2144026;83;21146;-65
2020/12/24 01:47:21;;;;;;;32.55;15.88;;;;;;;5.45;90.39;98016.97;2200534;81;21596;-64
2020/12/24 01:50:22;;;;;;;37.35;16.12;;;;;;;5.50;90.48;98013.67;2143996;83;21692;-64
2020/12/24 01:53:23;;;;;;;36.00;15.78;;;;;;;5.54;90.62;98015.16;2200924;81;21266;-67
2020/12/24 01:56:24;;;;;;;36.05;15.35;;;;;;;5.59;90.81;98001.93;2144121;83;21316;-64
2020/12/24 01:59:25;;;;;;;35.50;16.97;;;;;;;5.63;90.72;98004.75;2200623;81;21737;-68
2020/12/24 02:02:27;;;;;;;34.78;16.37;;;;;;;5.69;90.75;97997.91;2144247;83;21276;-65
2020/12/24 02:05:31;;;;;;;37.88;18.75;;;;;;;5.75;90.81;97998.47;2200620;81;21325;-64
2020/12/24 02:08:32;;;;;;;35.13;16.30;;;;;;;5.81;90.86;98005.50;2143982;83;21157;-64
2020/12/24 02:11:34;;;;;;;36.35;17.40;;;;;;;5.85;91.02;97992.70;2200803;81;21710;-64
2020/12/24 02:14:35;;;;;;;38.17;16.67;;;;;;;5.87;90.90;97997.34;2143767;83;21175;-65
2020/12/24 02:17:36;;;;;;;40.55;18.75;;;;;;;5.88;90.89;97992.52;2176673;81;21310;-65
2020/12/24 02:20:37;;;;;;;37.35;18.40;;;;;;;5.95;91.08;97990.43;2144340;83;21325;-64
2020/12/24 02:23:39;;;;;;;35.25;17.05;;;;;;;6.03;91.07;97984.82;2200876;81;21714;-65
2020/12/24 02:26:40;;;;;;;37.83;18.35;;;;;;;6.10;91.04;97973.14;2143949;83;21142;-65
2020/12/24 02:29:41;;;;;;;38.28;18.57;;;;;;;6.16;90.91;97975.86;2200959;81;21698;-65
2020/12/24 02:32:42;;;;;;;39.60;19.75;;;;;;;6.18;90.89;97979.23;2105782;84;21329;-67
2020/12/24 02:35:43;;;;;;;41.00;19.37;;;;;;;6.18;90.97;97977.45;2200163;81;21298;-65
2020/12/24 02:38:44;;;;;;;36.50;17.40;;;;;;;6.20;90.92;97979.97;2200406;81;21215;-67
2020/12/24 02:41:45;;;;;;;46.65;21.07;;;;;;;6.22;90.98;97976.80;2118827;83;21173;-66
2020/12/24 02:44:46;;;;;;;40.20;18.87;;;;;;;6.27;91.05;97980.47;2200435;81;21147;-73
2020/12/24 02:47:47;;;;;;;40.40;18.12;;;;;;;6.35;91.07;97973.03;2200079;81;21164;-68
2020/12/24 02:50:49;;;;;;;39.58;20.62;;;;;;;6.36;91.04;97961.70;2199913;81;21717;-65
2020/12/24 02:53:50;;;;;;;41.63;19.48;;;;;;;6.36;91.08;97950.80;2200194;81;21283;-66
2020/12/24 02:56:51;;;;;;;46.37;21.70;;;;;;;6.39;91.19;97962.83;2118781;84;21618;-65
2020/12/24 02:59:52;;;;;;;43.98;21.12;;;;;;;6.44;91.18;97956.89;2200218;81;21297;-68
2020/12/24 03:02:53;;;;;;;44.13;21.48;;;;;;;6.51;91.33;97963.42;2199930;81;21261;-80
2020/12/24 03:05:55;;;;;;;46.18;22.65;;;;;;;6.59;91.27;97949.94;2200134;81;21802;-75
2020/12/24 03:08:56;;;;;;;43.52;22.80;;;;;;;6.66;91.23;97949.13;2118537;83;21300;-75
2020/12/24 03:11:57;;;;;;;45.75;23.22;;;;;;;6.72;91.36;97948.75;2200103;81;21725;-68
2020/12/24 03:14:58;;;;;;;45.70;24.20;;;;;;;6.82;91.26;97958.17;2118558;83;21149;-78
2020/12/24 03:18:00;;;;;;;56.68;35.20;;;;;;;6.86;91.18;97951.85;2199836;81;21729;-76
2020/12/24 03:21:01;;;;;;;51.88;27.60;;;;;;;6.87;91.12;97952.23;2200223;81;21274;-75
2020/12/24 03:24:02;;;;;;;57.88;29.87;;;;;;;6.91;91.36;97946.74;2200120;81;21277;-65
2020/12/24 03:27:03;;;;;;;42.00;20.85;;;;;;;6.99;91.78;97947.57;2199948;81;21734;-65
2020/12/24 03:30:04;;;;;;;39.55;19.75;;;;;;;7.13;92.67;97944.14;2118621;83;21581;-65
2020/12/24 03:33:06;;;;;;;41.90;21.37;;;;;;;7.27;93.34;97950.65;2197679;81;21293;-65
2020/12/24 03:36:07;;;;;;;35.50;17.27;;;;;;;7.42;93.76;97935.81;2111665;84;21170;-65
2020/12/24 03:39:08;;;;;;;36.95;16.62;;;;;;;7.56;93.66;97942.78;2206218;80;21682;-65
2020/12/24 03:42:09;;;;;;;35.45;16.27;;;;;;;7.69;93.70;97923.75;2112124;84;21289;-65
2020/12/24 03:45:10;;;;;;;35.68;16.27;;;;;;;7.77;93.37;97929.30;2206216;80;21705;-64
2020/12/24 03:48:11;;;;;;;32.40;15.13;;;;;;;7.87;94.03;97921.72;2111665;84;21154;-67
2020/12/24 03:51:12;;;;;;;32.88;14.40;;;;;;;7.95;94.04;97919.45;2175648;81;21305;-64
2020/12/24 03:54:14;;;;;;;31.37;13.80;;;;;;;7.99;93.59;97914.41;2111847;84;21149;-65
2020/12/24 03:57:15;;;;;;;30.23;13.88;;;;;;;8.07;93.89;97912.59;2175550;81;21741;-65
2020/12/24 04:00:16;;;;;;;30.80;13.20;;;;;;;8.11;93.65;97914.90;2112055;84;21293;-65
2020/12/24 04:03:18;;;;;;;30.23;13.18;;;;;;;8.18;93.66;97912.73;2206073;80;21281;-70
2020/12/24 04:06:19;;;;;;;29.85;12.30;;;;;;;8.25;93.72;97914.48;2112108;84;21292;-66
2020/12/24 04:09:20;;;;;;;31.75;11.88;;;;;;;8.30;93.67;97906.71;2205933;80;21127;-65
2020/12/24 04:12:21;;;;;;;29.57;12.25;;;;;;;8.36;93.57;97904.61;2111759;84;21157;-65
2020/12/24 04:15:22;;;;;;;28.83;13.43;;;;;;;8.45;93.49;97910.58;2205937;80;21143;-65
2020/12/24 04:18:23;;;;;;;28.38;13.20;;;;;;;8.50;93.42;97917.63;2111700;84;21602;-65
2020/12/24 04:21:24;;;;;;;25.77;11.30;;;;;;;8.54;93.37;97913.87;2205940;80;21163;-65
2020/12/24 04:24:25;;;;;;;26.90;10.88;;;;;;;8.55;93.36;97910.33;2111914;84;21273;-65
2020/12/24 04:27:29;;;;;;;24.27;8.63;;;;;;;8.57;93.51;97904.51;2205939;80;21116;-65
2020/12/24 04:30:30;;;;;;;28.45;9.40;;;;;;;8.64;93.70;97910.17;2111602;84;21143;-65
2020/12/24 04:33:31;;;;;;;27.35;9.65;;;;;;;8.70;93.48;97905.00;2211244;80;21174;-66
2020/12/24 04:36:32;;;;;;;26.20;9.78;;;;;;;8.74;93.35;97905.16;2213068;80;21313;-65
2020/12/24 04:39:33;;;;;;;27.35;8.63;;;;;;;8.79;93.13;97904.36;2213313;80;21685;-67
2020/12/24 04:42:34;;;;;;;23.98;8.73;;;;;;;8.81;93.30;97907.72;2213570;80;21269;-65
2020/12/24 04:45:35;;;;;;;25.50;9.13;;;;;;;8.84;92.91;97904.41;2213056;80;21115;-65
2020/12/24 04:48:36;;;;;;;25.57;8.75;;;;;;;8.86;92.76;97909.53;2213200;80;21265;-65
2020/12/24 04:51:37;;;;;;;25.35;9.18;;;;;;;8.86;92.64;97899.55;2213561;80;21261;-65
2020/12/24 04:54:41;;;;;;;26.37;9.58;;;;;;;8.84;92.30;97903.10;2213235;80;21741;-65
2020/12/24 04:57:42;;;;;;;24.45;9.88;;;;;;;8.83;92.33;97907.98;2213520;80;21292;-65
2020/12/24 05:00:44;;;;;;;25.43;9.83;;;;;;;8.82;92.67;97906.76;2118554;83;21299;-65
2020/12/24 05:03:45;;;;;;;26.87;10.23;;;;;;;8.81;92.43;97911.16;2199824;81;21277;-65
2020/12/24 05:06:46;;;;;;;27.95;9.90;;;;;;;8.80;92.60;97914.71;2199924;81;21721;-65
2020/12/24 05:09:47;;;;;;;25.70;10.53;;;;;;;8.79;92.34;97910.45;2199780;81;21288;-65
2020/12/24 05:12:48;;;;;;;25.35;10.10;;;;;;;8.78;92.30;97913.99;2199808;81;21269;-67
2020/12/24 05:15:49;;;;;;;24.25;9.28;;;;;;;8.74;91.87;97905.98;2199828;81;21277;-65
2020/12/24 05:18:50;;;;;;;26.05;10.08;;;;;;;8.74;92.23;97916.44;2200072;81;21099;-65
2020/12/24 05:21:51;;;;;;;29.60;11.40;;;;;;;8.75;92.08;97909.42;2199818;81;21293;-65
2020/12/24 05:24:52;;;;;;;26.40;10.75;;;;;;;8.72;92.19;97903.10;2118449;83;21273;-65
2020/12/24 05:27:54;;;;;;;25.87;9.43;;;;;;;8.74;92.41;97908.60;2200047;81;21305;-64
2020/12/24 05:30:55;;;;;;;25.82;9.05;;;;;;;8.75;92.50;97901.58;2173596;81;21302;-65
2020/12/24 05:33:56;;;;;;;25.05;9.60;;;;;;;8.78;92.43;97913.99;2196968;81;21702;-65
2020/12/24 05:36:58;;;;;;;26.05;9.83;;;;;;;8.79;92.20;97918.29;2111993;84;21312;-68
2020/12/24 05:40:00;;;;;;;27.05;10.45;;;;;;;8.79;92.20;97918.29;2206433;81;21281;-69
2020/12/24 05:43:01;;;;;;;28.05;10.08;;;;;;;8.80;92.05;97913.41;2206116;81;21268;-69
2020/12/24 05:46:04;;;;;;;25.68;10.45;;;;;;;8.82;91.97;97906.76;2111751;84;21127;-66
2020/12/24 05:49:05;;;;;;;30.95;12.55;;;;;;;8.80;91.88;97902.94;2206082;81;21154;-66
2020/12/24 05:52:07;;;;;;;30.65;14.00;;;;;;;8.78;91.75;97904.84;2111813;84;21589;-68
2020/12/24 05:55:09;;;;;;;28.50;12.85;;;;;;;8.73;91.67;97904.30;2206262;81;21266;-65
2020/12/24 05:58:10;;;;;;;29.55;11.83;;;;;;;8.70;91.70;97894.55;2111810;84;21748;-65
2020/12/24 06:01:11;;;;;;;30.48;11.78;;;;;;;8.66;91.69;97898.67;2175633;81;21278;-72
2020/12/24 06:04:12;;;;;;;31.77;12.88;;;;;;;8.63;91.67;97893.66;2111747;84;21289;-80
2020/12/24 06:07:13;;;;;;;32.58;14.75;;;;;;;8.62;91.59;97889.81;2206224;80;21262;-65
2020/12/24 06:10:14;;;;;;;33.80;14.40;;;;;;;8.58;91.52;97883.97;2111971;84;21325;-65
2020/12/24 06:13:16;;;;;;;36.53;16.07;;;;;;;8.55;91.67;97884.64;2206281;80;21699;-65
2020/12/24 06:16:17;;;;;;;33.88;15.18;;;;;;;8.51;91.58;97884.50;2112049;84;21309;-65
2020/12/24 06:19:18;;;;;;;33.35;14.83;;;;;;;8.47;91.65;97881.25;2206027;81;21285;-65
2020/12/24 06:22:20;;;;;;;29.45;13.15;;;;;;;8.45;91.69;97881.83;2111969;84;21309;-67
2020/12/24 06:25:21;;;;;;;30.08;12.07;;;;;;;8.43;91.58;97878.44;2206267;81;21730;-65
2020/12/24 06:28:22;;;;;;;30.43;12.10;;;;;;;8.42;91.76;97874.14;2111815;84;21732;-67
2020/12/24 06:31:23;;;;;;;27.37;11.70;;;;;;;8.41;91.75;97864.17;2206052;80;21174;-65
2020/12/24 06:34:24;;;;;;;29.87;12.30;;;;;;;8.41;91.61;97865.48;2098844;84;21312;-66
2020/12/24 06:37:25;;;;;;;42.15;19.10;;;;;;;8.38;91.46;97870.91;2199838;81;21785;-65
2020/12/24 06:40:26;;;;;;;32.78;15.55;;;;;;;8.36;91.49;97873.26;2200395;81;21159;-66
2020/12/24 06:43:27;;;;;;;30.57;12.90;;;;;;;8.34;91.57;97874.67;2200032;81;21282;-65
2020/12/24 06:46:29;;;;;;;38.13;15.55;;;;;;;8.33;91.66;97884.74;2200060;81;21710;-66
2020/12/24 06:49:30;;;;;;;32.10;13.80;;;;;;;8.33;91.56;97882.98;2200111;81;21710;-65
2020/12/24 06:52:31;;;;;;;32.78;14.10;;;;;;;8.33;91.63;97889.97;2200424;81;21207;-65
2020/12/24 06:55:32;;;;;;;35.03;14.83;;;;;;;8.32;91.46;97895.67;2200392;81;21156;-68
2020/12/24 06:58:33;;;;;;;30.97;13.32;;;;;;;8.32;91.46;97913.97;2200389;81;21293;-65
2020/12/24 07:01:35;;;;;;;29.42;13.00;;;;;;;8.34;91.57;97917.78;2200403;81;21167;-65
2020/12/24 07:04:37;;;;;;;31.62;13.62;;;;;;;8.37;91.62;97912.83;2199835;81;21752;-65
2020/12/24 07:07:38;;;;;;;31.23;13.58;;;;;;;8.41;91.53;97915.13;2200025;81;21281;-64
2020/12/24 07:10:40;;;;;;;39.65;18.50;;;;;;;8.43;91.52;97909.80;2199865;81;21744;-66
2020/12/24 07:13:41;;;;;;;44.65;19.85;;;;;;;8.44;91.42;97920.63;2173692;81;21277;-65
2020/12/24 07:16:42;;;;;;;36.15;15.85;;;;;;;8.45;91.36;97920.55;2118778;84;21206;-67
2020/12/24 07:19:43;;;;;;;38.30;17.50;;;;;;;8.49;91.24;97922.47;2199976;81;21285;-65
2020/12/24 07:22:44;;;;;;;37.35;16.50;;;;;;;8.49;91.11;97924.64;2200334;81;21302;-65
2020/12/24 07:25:45;;;;;;;32.73;14.43;;;;;;;8.53;91.07;97925.73;2199903;81;21273;-65
2020/12/24 07:28:47;;;;;;;29.82;13.58;;;;;;;8.55;91.03;97935.61;2200087;81;21707;-65
2020/12/24 07:31:48;;;;;;;36.88;16.93;;;;;;;8.58;90.92;97932.33;2199973;81;21608;-65
2020/12/24 07:34:50;;;;;;;39.33;16.52;;;;;;;8.60;90.83;97933.53;2196639;81;21301;-70
2020/12/24 07:37:51;;;;;;;36.60;16.03;;;;;;;8.60;90.71;97930.92;2111914;84;21182;-64
2020/12/24 07:40:52;;;;;;;44.20;20.05;;;;;;;8.59;90.66;97924.01;2206195;80;22395;-68
2020/12/24 07:43:53;;;;;;;38.75;18.17;;;;;;;8.60;90.62;97934.36;2112121;84;21309;-68
2020/12/24 07:46:54;;;;;;;33.83;14.98;;;;;;;8.61;90.54;97929.50;2205861;80;21155;-66
2020/12/24 07:49:56;;;;;;;41.53;18.10;;;;;;;8.63;90.47;97930.70;2111859;84;21300;-68
2020/12/24 07:52:57;;;;;;;51.90;22.65;;;;;;;8.63;90.43;97921.11;2206465;80;21285;-71
2020/12/24 07:55:58;;;;;;;52.00;24.77;;;;;;;8.62;90.37;97912.03;2111639;84;21162;-68
2020/12/24 07:58:59;;;;;;;60.58;26.87;;;;;;;8.63;90.33;97905.87;2206087;80;21693;-66
2020/12/24 08:02:00;;;;;;;46.90;20.50;;;;;;;8.65;90.20;97910.55;2111601;84;21289;-67
2020/12/24 08:05:01;;;;;;;38.30;18.12;;;;;;;8.61;90.17;97894.22;2206460;81;21151;-65
2020/12/24 08:08:02;;;;;;;38.33;17.87;;;;;;;8.59;90.16;97901.79;2111604;84;21158;-70
2020/12/24 08:11:04;;;;;;;40.48;18.42;;;;;;;8.59;90.10;97901.79;2205973;80;21603;-68
2020/12/24 08:14:05;;;;;;;38.78;18.42;;;;;;;8.57;90.04;97900.59;2112083;84;21737;-65
2020/12/24 08:17:06;;;;;;;40.05;18.32;;;;;;;8.58;89.95;97900.14;2206112;80;21540;-67
2020/12/24 08:20:08;;;;;;;42.38;21.23;;;;;;;8.60;89.99;97897.77;2112085;84;21305;-69
2020/12/24 08:23:09;;;;;;;40.10;19.32;;;;;;;8.61;89.94;97897.31;2205967;81;21147;-65
2020/12/24 08:26:10;;;;;;;40.23;19.27;;;;;;;8.62;89.87;97895.90;2111869;84;21284;-65
2020/12/24 08:29:11;;;;;;;38.70;19.25;;;;;;;8.61;89.91;97897.31;2206011;80;21143;-65
2020/12/24 08:32:13;;;;;;;42.00;18.75;;;;;;;8.61;89.86;97903.36;2112077;84;21316;-69
2020/12/24 08:35:15;;;;;;;40.85;18.77;;;;;;;8.61;89.87;97900.75;2205878;80;21199;-65
2020/12/24 08:38:16;;;;;;;38.75;18.50;;;;;;;8.64;89.81;97903.63;2111578;84;21651;-65
2020/12/24 08:41:17;;;;;;;41.90;20.52;;;;;;;8.66;89.84;97897.82;2206308;80;21334;-67
2020/12/24 08:44:18;;;;;;;39.27;19.57;;;;;;;8.66;89.75;97899.13;2111720;84;21736;-65
2020/12/24 08:47:19;;;;;;;38.95;20.25;;;;;;;8.64;89.69;97904.94;2206384;81;21294;-71
2020/12/24 08:50:21;;;;;;;42.55;19.35;;;;;;;8.64;89.62;97905.77;2111721;84;21617;-68
2020/12/24 08:53:22;;;;;;;39.05;17.60;;;;;;;8.63;89.70;97901.50;2206380;80;21285;-65
2020/12/24 08:56:23;;;;;;;41.75;19.73;;;;;;;8.65;89.62;97903.53;2091528;84;21296;-64
2020/12/24 08:59:24;;;;;;;43.55;21.75;;;;;;;8.67;89.54;97906.86;2205979;80;21309;-65
2020/12/24 09:02:25;;;;;;;41.50;19.50;;;;;;;8.69;89.47;97911.98;2111808;84;21166;-67
2020/12/24 09:05:27;;;;;;;48.55;20.35;;;;;;;8.70;89.32;97902.39;2206048;80;21281;-65
2020/12/24 09:08:30;;;;;;;43.50;19.87;;;;;;;8.69;89.32;97903.31;2111830;84;21158;-66
2020/12/24 09:11:31;;;;;;;43.58;19.30;;;;;;;8.70;89.28;97902.39;2206171;80;21310;-65
2020/12/24 09:14:32;;;;;;;43.80;19.30;;;;;;;8.72;89.15;97905.72;2112055;84;21598;-68
2020/12/24 09:17:33;;;;;;;43.30;18.15;;;;;;;8.72;89.00;97904.41;2206346;80;21297;-64
2020/12/24 09:20:34;;;;;;;41.15;19.90;;;;;;;8.74;89.13;97902.55;2111745;84;21191;-67
2020/12/24 09:23:36;;;;;;;38.73;17.65;;;;;;;8.74;89.11;97903.38;2205905;81;21107;-65
2020/12/24 09:26:37;;;;;;;38.33;18.77;;;;;;;8.74;88.89;97892.91;2111583;84;21149;-66
2020/12/24 09:29:38;;;;;;;39.85;17.67;;;;;;;8.73;88.96;97895.16;2205929;81;21143;-65
2020/12/24 09:32:39;;;;;;;34.90;15.53;;;;;;;8.75;89.00;97893.73;2111755;84;21300;-68
2020/12/24 09:35:40;;;;;;;37.95;16.90;;;;;;;8.77;88.87;97891.39;2205997;81;21571;-65
2020/12/24 09:38:41;;;;;;;37.85;16.82;;;;;;;8.79;88.83;97887.36;2112005;84;21309;-65
2020/12/24 09:41:43;;;;;;;39.27;17.80;;;;;;;8.80;88.78;97888.56;2206015;81;21591;-65
2020/12/24 09:44:44;;;;;;;36.55;16.62;;;;;;;8.80;88.76;97884.64;2111922;84;21320;-68
2020/12/24 09:47:45;;;;;;;35.25;15.32;;;;;;;8.79;88.56;97880.38;2205918;81;21179;-68
2020/12/24 09:50:49;;;;;;;36.48;15.32;;;;;;;8.79;88.57;97882.13;2111502;84;21139;-70
2020/12/24 09:53:50;;;;;;;33.92;15.90;;;;;;;8.81;88.56;97889.42;2205918;80;21131;-64
2020/12/24 09:56:52;;;;;;;37.90;17.62;;;;;;;8.83;88.57;97891.44;2111637;84;21177;-68
2020/12/24 09:59:53;;;;;;;39.90;17.48;;;;;;;8.84;88.38;97893.12;2205921;80;21599;-70
2020/12/24 10:02:54;;;;;;;35.40;16.00;;;;;;;8.84;88.30;97891.34;2111800;84;21332;-73
2020/12/24 10:05:56;;;;;;;37.63;15.90;;;;;;;8.83;88.26;97890.99;2206596;80;21277;-69
2020/12/24 10:08:57;;;;;;;36.88;15.43;;;;;;;8.82;88.24;97890.62;2111656;84;21142;-64
2020/12/24 10:11:58;;;;;;;39.80;16.35;;;;;;;8.83;88.40;97885.77;2206109;80;21752;-64
2020/12/24 10:14:59;;;;;;;41.35;17.77;;;;;;;8.85;88.07;97884.34;2112033;84;21304;-65
2020/12/24 10:18:00;;;;;;;37.65;16.97;;;;;;;8.85;88.01;97880.42;2205932;80;21317;-75
2020/12/24 10:21:02;;;;;;;42.30;19.23;;;;;;;8.86;87.98;97874.71;2112257;84;21356;-79
2020/12/24 10:24:05;;;;;;;40.55;17.70;;;;;;;8.86;87.85;97878.16;2206384;81;21332;-65
2020/12/24 10:27:06;;;;;;;37.03;15.45;;;;;;;8.88;87.90;97876.28;2091503;84;21276;-65
2020/12/24 10:30:07;;;;;;;46.42;20.60;;;;;;;8.91;87.28;97874.77;2206167;81;21710;-68
2020/12/24 10:33:08;;;;;;;40.70;17.52;;;;;;;8.95;87.69;97876.22;2111886;83;21276;-73
2020/12/24 10:36:10;;;;;;;44.67;20.00;;;;;;;8.97;87.55;97873.02;2175485;81;21293;-71
2020/12/24 10:39:11;;;;;;;46.35;18.62;;;;;;;9.00;87.63;97871.49;2111880;84;21317;-66
2020/12/24 10:42:14;;;;;;;43.55;18.00;;;;;;;9.01;87.77;97869.25;2206152;81;21274;-67
2020/12/24 10:45:15;;;;;;;44.70;19.77;;;;;;;9.03;87.83;97870.93;2112011;84;21348;-66
2020/12/24 10:48:16;;;;;;;42.67;20.08;;;;;;;9.03;87.78;97861.78;2175468;81;21130;-65
2020/12/24 10:51:17;;;;;;;44.00;19.67;;;;;;;9.00;88.01;97856.28;2111676;84;21142;-67
2020/12/24 10:54:19;;;;;;;41.53;18.23;;;;;;;8.98;88.06;97843.80;2206240;80;21702;-68
2020/12/24 10:57:20;;;;;;;43.95;18.82;;;;;;;8.96;88.14;97844.36;2112144;84;21289;-70
2020/12/24 11:00:24;;;;;;;45.43;20.32;;;;;;;8.94;88.17;97839.72;2206014;81;21262;-65
2020/12/24 11:03:27;;;;;;;38.10;16.37;;;;;;;8.93;88.09;97838.86;2111712;84;21134;-65
2020/12/24 11:06:33;;;;;;;40.78;17.80;;;;;;;8.92;88.22;97837.22;2206477;80;21289;-66
2020/12/24 11:09:31;;;;;;;39.95;18.00;;;;;;;8.92;88.33;97831.13;2111378;84;21336;-65
2020/12/24 11:12:32;;;;;;;41.53;19.20;;;;;;;8.91;88.46;97821.15;2206032;80;21289;-65
2020/12/24 11:15:33;;;;;;;41.45;17.27;;;;;;;8.90;88.49;97820.78;2112177;84;21281;-64
2020/12/24 11:18:36;;;;;;;39.33;18.62;;;;;;;8.87;88.54;97819.69;2206217;80;21564;-65
2020/12/24 11:21:38;;;;;;;39.20;17.80;;;;;;;8.84;88.66;97815.98;2111704;84;21143;-65
2020/12/24 11:24:39;;;;;;;43.35;18.95;;;;;;;8.82;88.74;97803.47;2206235;80;21714;-64
2020/12/24 11:27:40;;;;;;;35.70;15.80;;;;;;;8.81;88.84;97801.34;2111732;84;21178;-64
2020/12/24 11:30:41;;;;;;;37.65;15.85;;;;;;;8.82;88.97;97791.70;2175553;81;21274;-65
2020/12/24 11:33:43;;;;;;;37.03;16.27;;;;;;;8.83;88.98;97785.54;2111708;83;21721;-65
2020/12/24 11:36:44;;;;;;;41.05;18.52;;;;;;;8.83;88.92;97794.69;2206419;80;21289;-65
2020/12/24 11:39:46;;;;;;;36.50;16.80;;;;;;;8.84;88.88;97797.68;2206442;81;21147;-64
2020/12/24 11:42:47;;;;;;;37.35;17.67;;;;;;;8.83;88.85;97785.54;2111894;84;21296;-65
2020/12/24 11:45:48;;;;;;;35.85;16.07;;;;;;;8.81;88.83;97779.59;2206114;80;21694;-69
2020/12/24 11:48:49;;;;;;;41.28;18.87;;;;;;;8.79;88.86;97770.56;2112103;84;21292;-65
2020/12/24 11:51:50;;;;;;;35.33;16.27;;;;;;;8.82;88.97;97771.64;2206409;81;21296;-65
2020/12/24 11:54:52;;;;;;;38.10;16.37;;;;;;;8.85;88.90;97747.06;2111891;84;21296;-64
2020/12/24 11:57:53;;;;;;;37.38;15.55;;;;;;;8.87;88.82;97761.34;2206112;81;21721;-65
2020/12/24 12:00:55;;;;;;;46.20;18.62;;;;;;;8.89;88.64;97752.41;2111789;84;21618;-64
2020/12/24 12:03:56;;;;;;;46.70;20.00;;;;;;;8.90;88.56;97758.50;2175579;81;21154;-64
2020/12/24 12:06:57;;;;;;;42.93;18.40;;;;;;;8.89;88.58;97751.10;2111611;84;21138;-65
2020/12/24 12:09:58;;;;;;;32.48;13.60;;;;;;;8.90;88.57;97748.86;2206017;80;21733;-64
2020/12/24 12:12:59;;;;;;;32.08;13.43;;;;;;;8.89;88.28;97739.82;2111716;84;21332;-67
2020/12/24 12:16:01;;;;;;;35.20;15.55;;;;;;;8.86;88.25;97745.27;2206040;80;21285;-65
2020/12/24 12:19:02;;;;;;;37.25;15.53;;;;;;;8.81;88.45;97746.43;2111615;84;21123;-73
2020/12/24 12:22:03;;;;;;;30.50;13.03;;;;;;;8.80;88.57;97752.59;2206201;80;21290;-65
2020/12/24 12:25:05;;;;;;;31.62;12.50;;;;;;;8.79;88.62;97750.95;2111750;84;21748;-65
2020/12/24 12:28:06;;;;;;;29.48;12.53;;;;;;;8.78;88.62;97742.73;2206137;80;21277;-64
2020/12/24 12:31:07;;;;;;;30.27;13.43;;;;;;;8.77;88.69;97741.53;2111955;84;21289;-65
2020/12/24 12:34:08;;;;;;;30.43;12.82;;;;;;;8.79;88.59;97740.48;2177627;80;21305;-65
2020/12/24 12:37:12;;;;;;;29.02;11.83;;;;;;;8.81;88.74;97741.20;2213089;80;21737;-65
2020/12/24 12:40:12;;;;;;;28.23;12.33;;;;;;;8.80;88.70;97743.44;2213413;80;21276;-65
2020/12/24 12:43:14;;;;;;;33.90;14.13;;;;;;;8.77;88.76;97745.45;2213064;80;21594;-65
2020/12/24 12:46:15;;;;;;;39.48;15.20;;;;;;;8.70;89.01;97742.43;2213564;80;21305;-67
2020/12/24 12:49:16;;;;;;;37.70;14.95;;;;;;;8.67;89.06;97727.79;2213555;80;21285;-65
2020/12/24 12:52:17;;;;;;;43.60;17.30;;;;;;;8.65;89.08;97731.00;2213550;80;21107;-65
2020/12/24 12:55:18;;;;;;;33.55;13.68;;;;;;;8.64;89.16;97722.78;2100288;84;21292;-69
2020/12/24 12:58:19;;;;;;;33.30;14.10;;;;;;;8.64;89.09;97725.88;2199972;81;21301;-65
2020/12/24 13:01:20;;;;;;;33.00;12.90;;;;;;;8.64;89.12;97731.94;2199918;81;21273;-65
2020/12/24 13:04:22;;;;;;;41.33;18.70;;;;;;;8.62;89.08;97738.20;2199871;81;21191;-67
2020/12/24 13:07:23;;;;;;;46.63;19.85;;;;;;;8.61;89.21;97743.91;2199890;81;21300;-65
2020/12/24 13:10:25;;;;;;;34.27;13.58;;;;;;;8.61;89.19;97732.64;2200023;81;21290;-67
2020/12/24 13:13:26;;;;;;;38.92;15.90;;;;;;;8.61;89.07;97738.69;2118454;83;21119;-66
2020/12/24 13:16:27;;;;;;;37.75;16.42;;;;;;;8.61;89.13;97744.40;2199912;81;21762;-65
2020/12/24 13:19:28;;;;;;;37.73;15.43;;;;;;;8.61;89.05;97733.95;2199778;81;21297;-67
2020/12/24 13:22:29;;;;;;;37.45;14.38;;;;;;;8.62;88.99;97731.67;2200259;81;21305;-67
2020/12/24 13:25:30;;;;;;;40.03;16.95;;;;;;;8.61;88.92;97726.92;2200271;81;21286;-69
2020/12/24 13:28:32;;;;;;;49.18;20.88;;;;;;;8.60;88.90;97716.58;2199973;81;21737;-65
2020/12/24 13:31:33;;;;;;;41.00;19.07;;;;;;;8.56;88.85;97709.45;2199981;81;21278;-65
2020/12/24 13:34:34;;;;;;;37.25;18.55;;;;;;;8.53;88.81;97700.97;2126329;83;21296;-68
2020/12/24 13:37:35;;;;;;;34.13;15.28;;;;;;;8.51;88.76;97688.02;2200885;81;21329;-68
2020/12/24 13:40:36;;;;;;;36.48;16.55;;;;;;;8.50;88.48;97688.95;2144024;83;21308;-67
2020/12/24 13:43:37;;;;;;;40.80;19.90;;;;;;;8.50;88.45;97679.80;2200565;81;21571;-64
2020/12/24 13:46:38;;;;;;;41.58;19.87;;;;;;;8.50;88.38;97678.49;2144238;83;21296;-64
2020/12/24 13:49:39;;;;;;;44.55;21.55;;;;;;;8.49;88.32;97677.67;2200396;81;21175;-69
2020/12/24 13:52:40;;;;;;;35.35;14.18;;;;;;;8.45;87.90;97674.91;2143854;83;21307;-76
2020/12/24 13:55:42;;;;;;;63.68;27.45;;;;;;;8.40;87.06;97680.88;2200689;81;21689;-75
2020/12/24 13:58:43;;;;;;;61.68;28.35;;;;;;;8.35;87.31;97701.29;2143962;83;21165;-73
2020/12/24 14:01:44;;;;;;;40.65;19.00;;;;;;;8.31;87.26;97682.84;2200928;81;21135;-76
2020/12/24 14:04:45;;;;;;;45.55;20.60;;;;;;;8.26;87.61;97680.56;2144271;83;21296;-75